createdAt,value
2023-02-05T00:01:08.794Z,100.00
2023-02-05T00:03:42.821Z,100.00
2023-02-05T00:06:11.599Z,100.00
2023-02-05T00:08:39.980Z,100.00
2023-02-05T00:11:09.514Z,100.00
2023-02-05T00:13:41.499Z,100.00
2023-02-05T00:16:20.162Z,100.00
2023-02-05T00:18:48.754Z,100.00
2023-02-05T00:21:18.585Z,100.00
2023-02-05T00:23:47.555Z,100.00
2023-02-05T00:26:15.960Z,100.00
2023-02-05T00:28:45.455Z,100.00
2023-02-05T00:31:16.717Z,100.00
2023-02-05T00:33:45.175Z,100.00
2023-02-05T00:36:13.751Z,100.00
2023-02-05T00:38:43.466Z,100.00
2023-02-05T00:41:12.499Z,100.00
2023-02-05T00:43:41.243Z,100.00
2023-02-05T00:46:10.938Z,100.00
2023-02-05T00:48:40.564Z,100.00
2023-02-05T00:51:10.611Z,100.00
2023-02-05T00:53:38.959Z,100.00
2023-02-05T00:56:08.047Z,100.00
2023-02-05T00:58:37.043Z,100.00
2023-02-05T01:01:05.765Z,100.00
2023-02-05T01:03:34.320Z,100.00
2023-02-05T01:06:03.566Z,100.00
2023-02-05T01:08:31.928Z,100.00
2023-02-05T01:11:00.360Z,100.00
2023-02-05T01:13:28.522Z,100.00
2023-02-05T01:15:57.172Z,100.00
2023-02-05T01:18:25.324Z,100.00
2023-02-05T01:20:53.901Z,100.00
2023-02-05T01:23:22.384Z,100.00
2023-02-05T01:25:50.996Z,100.00
2023-02-05T01:28:19.346Z,100.00
2023-02-05T01:30:51.323Z,100.00
2023-02-05T01:33:19.817Z,100.00
2023-02-05T01:35:48.271Z,100.00
2023-02-05T01:38:16.857Z,100.00
2023-02-05T01:40:45.027Z,100.00
2023-02-05T01:43:19.039Z,100.00
2023-02-05T01:46:12.126Z,100.00
2023-02-05T01:48:44.467Z,100.00
2023-02-05T01:51:15.917Z,100.00
2023-02-05T01:53:46.257Z,100.00
2023-02-05T01:56:22.713Z,100.00
2023-02-05T01:58:58.710Z,100.00
2023-02-05T02:01:28.314Z,100.00
2023-02-05T02:04:00.137Z,100.00
2023-02-05T02:06:28.721Z,100.00
2023-02-05T02:08:58.018Z,100.00
2023-02-05T02:11:29.334Z,100.00
2023-02-05T02:14:06.552Z,100.00
2023-02-05T02:16:37.962Z,99.61
2023-02-05T02:19:17.955Z,98.50
2023-02-05T02:22:04.165Z,97.41
2023-02-05T02:24:38.061Z,95.67
2023-02-05T02:27:18.728Z,94.43
2023-02-05T02:30:02.388Z,93.15
2023-02-05T02:33:32.607Z,92.63
2023-02-05T02:36:04.468Z,92.79
2023-02-05T02:38:40.214Z,93.21
2023-02-05T02:41:25.074Z,92.48
2023-02-05T02:44:03.495Z,92.16
2023-02-05T02:46:44.407Z,89.21
2023-02-05T02:49:19.202Z,88.84
2023-02-05T02:51:51.013Z,88.96
2023-02-05T02:54:21.999Z,90.17
2023-02-05T02:56:52.896Z,88.48
2023-02-05T02:59:25.927Z,85.23
2023-02-05T03:01:57.646Z,83.44
2023-02-05T03:04:38.969Z,83.27
2023-02-05T03:07:13.763Z,83.01
2023-02-05T03:09:55.771Z,82.81
2023-02-05T03:12:24.684Z,83.24
2023-02-05T03:14:53.984Z,83.39
2023-02-05T03:17:24.832Z,83.05
2023-02-05T03:20:02.640Z,82.96
2023-02-05T03:22:30.910Z,82.93
2023-02-05T03:24:59.277Z,85.07
2023-02-05T03:27:28.301Z,85.08
2023-02-05T03:29:57.774Z,85.73
2023-02-05T03:32:48.068Z,85.86
2023-02-05T03:35:30.834Z,85.54
2023-02-05T03:37:59.573Z,85.10
2023-02-05T03:40:45.978Z,84.25
2023-02-05T03:43:25.822Z,84.59
2023-02-05T03:46:13.361Z,83.95
2023-02-05T03:48:51.152Z,84.63
2023-02-05T03:51:19.634Z,84.45
2023-02-05T03:54:04.714Z,84.77
2023-02-05T03:56:55.313Z,84.36
2023-02-05T03:59:26.343Z,84.99
2023-02-05T04:01:55.787Z,84.99
2023-02-05T04:04:25.044Z,85.08
2023-02-05T04:06:54.034Z,85.39
2023-02-05T04:09:23.539Z,85.80
2023-02-05T04:11:51.826Z,86.41
2023-02-05T04:14:22.581Z,86.73
2023-02-05T04:16:52.568Z,87.03
2023-02-05T04:19:22.388Z,87.95
2023-02-05T04:21:50.759Z,88.23
2023-02-05T04:24:20.011Z,88.19
2023-02-05T04:26:48.540Z,87.84
2023-02-05T04:29:17.139Z,88.27
2023-02-05T04:31:47.159Z,88.76
2023-02-05T04:34:15.779Z,88.94
2023-02-05T04:36:45.853Z,88.93
2023-02-05T04:39:14.337Z,89.00
2023-02-05T04:41:42.818Z,89.01
2023-02-05T04:44:10.995Z,88.88
2023-02-05T04:46:39.278Z,88.53
2023-02-05T04:49:07.584Z,88.44
2023-02-05T04:51:35.923Z,88.32
2023-02-05T04:54:04.402Z,88.13
2023-02-05T04:56:32.784Z,88.63
2023-02-05T04:59:01.372Z,88.30
2023-02-05T05:01:29.573Z,87.61
2023-02-05T05:03:58.123Z,88.60
2023-02-05T05:06:26.507Z,88.92
2023-02-05T05:08:54.758Z,88.38
2023-02-05T05:11:23.163Z,88.28
2023-02-05T05:13:52.354Z,88.15
2023-02-05T05:16:20.573Z,88.37
2023-02-05T05:18:52.329Z,88.66
2023-02-05T05:21:20.574Z,88.47
2023-02-05T05:23:49.061Z,88.81
2023-02-05T05:26:17.334Z,88.47
2023-02-05T05:28:45.616Z,88.46
2023-02-05T05:31:19.757Z,89.00
2023-02-05T05:33:48.505Z,88.87
2023-02-05T05:36:17.293Z,88.77
2023-02-05T05:38:45.574Z,89.35
2023-02-05T05:41:41.947Z,89.72
2023-02-05T05:44:10.915Z,89.89
2023-02-05T05:46:39.177Z,89.96
2023-02-05T05:49:07.455Z,89.56
2023-02-05T05:51:35.730Z,89.92
2023-02-05T05:54:04.416Z,90.44
2023-02-05T05:56:32.487Z,90.11
2023-02-05T05:59:00.870Z,90.35
2023-02-05T06:01:29.244Z,89.97
2023-02-05T06:03:57.617Z,90.15
2023-02-05T06:06:25.902Z,90.05
2023-02-05T06:08:53.969Z,90.44
2023-02-05T06:11:22.351Z,90.63
2023-02-05T06:13:50.726Z,90.77
2023-02-05T06:16:19.234Z,90.92
2023-02-05T06:18:47.484Z,90.90
2023-02-05T06:21:15.869Z,91.15
2023-02-05T06:23:44.452Z,91.43
2023-02-05T06:26:12.623Z,91.27
2023-02-05T06:28:40.902Z,91.65
2023-02-05T06:31:09.219Z,91.24
2023-02-05T06:33:37.770Z,91.47
2023-02-05T06:36:06.929Z,90.69
2023-02-05T06:38:36.261Z,89.33
2023-02-05T06:41:04.805Z,86.42
2023-02-05T06:43:32.940Z,84.21
2023-02-05T06:46:01.342Z,81.26
2023-02-05T06:48:29.776Z,79.36
2023-02-05T06:50:57.848Z,78.76
2023-02-05T06:53:26.582Z,77.05
2023-02-05T06:55:58.807Z,75.85
2023-02-05T06:58:27.084Z,74.05
2023-02-05T07:00:55.768Z,71.82
2023-02-05T07:03:24.161Z,69.51
2023-02-05T07:05:52.323Z,68.76
2023-02-05T07:08:20.398Z,68.31
2023-02-05T07:10:48.776Z,69.18
2023-02-05T07:13:16.972Z,67.79
2023-02-05T07:15:46.172Z,69.18
2023-02-05T07:18:14.325Z,69.94
2023-02-05T07:20:42.435Z,70.01
2023-02-05T07:23:10.982Z,71.16
2023-02-05T07:25:39.260Z,71.51
2023-02-05T07:28:09.170Z,70.79
2023-02-05T07:30:37.761Z,69.93
2023-02-05T07:33:06.182Z,68.62
2023-02-05T07:35:37.697Z,67.34
2023-02-05T07:38:06.375Z,67.61
2023-02-05T07:40:34.860Z,67.83
2023-02-05T07:43:03.141Z,68.92
2023-02-05T07:45:33.782Z,68.50
2023-02-05T07:48:02.347Z,68.50
2023-02-05T07:50:30.726Z,68.11
2023-02-05T07:52:59.005Z,67.44
2023-02-05T07:55:27.282Z,69.05
2023-02-05T07:57:55.557Z,68.66
2023-02-05T08:00:25.002Z,68.57
2023-02-05T08:02:53.232Z,67.85
2023-02-05T08:05:21.714Z,67.38
2023-02-05T08:07:49.891Z,65.36
2023-02-05T08:10:18.584Z,63.24
2023-02-05T08:12:47.363Z,63.16
2023-02-05T08:15:15.946Z,62.03
2023-02-05T08:17:44.326Z,62.27
2023-02-05T08:20:13.221Z,60.47
2023-02-05T08:22:43.466Z,59.45
2023-02-05T08:25:14.387Z,59.85
2023-02-05T08:27:43.328Z,59.84
2023-02-05T08:30:15.020Z,58.53
2023-02-05T08:32:47.607Z,57.06
2023-02-05T08:35:16.808Z,55.06
2023-02-05T08:37:45.081Z,52.46
2023-02-05T08:40:14.076Z,52.65
2023-02-05T08:42:42.362Z,52.21
2023-02-05T08:45:10.731Z,52.91
2023-02-05T08:47:39.110Z,51.68
2023-02-05T08:50:07.898Z,51.09
2023-02-05T08:52:36.380Z,50.10
2023-02-05T08:55:05.171Z,49.47
2023-02-05T08:57:33.650Z,48.43
2023-02-05T09:00:01.950Z,46.58
2023-02-05T09:02:32.232Z,46.55
2023-02-05T09:05:08.432Z,46.21
2023-02-05T09:07:40.010Z,45.43
2023-02-05T09:10:10.908Z,46.18
2023-02-05T09:12:40.018Z,47.01
2023-02-05T09:15:09.422Z,46.58
2023-02-05T09:17:37.786Z,46.46
2023-02-05T09:20:06.808Z,45.41
2023-02-05T09:22:35.056Z,46.59
2023-02-05T09:25:03.331Z,46.60
2023-02-05T09:27:32.024Z,47.30
2023-02-05T09:30:00.513Z,47.77
2023-02-05T09:32:28.787Z,48.11
2023-02-05T09:34:56.970Z,47.84
2023-02-05T09:37:25.441Z,47.80
2023-02-05T09:40:23.118Z,47.93
2023-02-05T09:43:07.765Z,48.05
2023-02-05T09:45:48.726Z,47.71
2023-02-05T09:48:49.621Z,46.90
2023-02-05T09:51:28.944Z,45.41
2023-02-05T09:54:03.994Z,44.75
2023-02-05T09:56:34.306Z,43.95
2023-02-05T09:59:05.744Z,43.58
2023-02-05T10:01:45.402Z,42.64
2023-02-05T10:04:14.784Z,42.50
2023-02-05T10:07:04.770Z,44.35
2023-02-05T10:09:48.396Z,43.14
2023-02-05T10:12:37.965Z,43.13
2023-02-05T10:15:33.290Z,43.62
2023-02-05T10:18:07.143Z,44.57
2023-02-05T10:20:53.122Z,43.89
2023-02-05T10:23:58.731Z,43.83
2023-02-05T10:26:48.815Z,44.08
2023-02-05T10:29:23.622Z,43.33
2023-02-05T10:32:18.574Z,42.76
2023-02-05T10:34:54.505Z,43.29
2023-02-05T10:37:36.815Z,43.89
2023-02-05T10:40:15.945Z,43.21
2023-02-05T10:43:15.964Z,43.63
2023-02-05T10:45:45.164Z,43.07
2023-02-05T10:48:13.545Z,42.66
2023-02-05T10:51:02.607Z,43.13
2023-02-05T10:53:31.689Z,43.89
2023-02-05T10:56:01.905Z,44.14
2023-02-05T10:58:56.546Z,44.19
2023-02-05T11:01:31.068Z,45.75
2023-02-05T11:04:07.804Z,45.56
2023-02-05T11:06:45.783Z,46.84
2023-02-05T11:09:25.786Z,46.83
2023-02-05T11:12:16.476Z,47.73
2023-02-05T11:14:47.404Z,47.78
2023-02-05T11:17:24.734Z,47.05
2023-02-05T11:19:59.243Z,47.60
2023-02-05T11:22:36.107Z,47.98
2023-02-05T11:25:17.073Z,47.48
2023-02-05T11:28:05.032Z,47.41
2023-02-05T11:30:52.120Z,46.17
2023-02-05T11:33:27.907Z,46.78
2023-02-05T11:36:03.335Z,46.91
2023-02-05T11:38:43.825Z,46.43
2023-02-05T11:41:15.397Z,47.26
2023-02-05T11:43:51.711Z,46.78
2023-02-05T11:46:23.769Z,47.26
2023-02-05T11:48:55.024Z,46.12
2023-02-05T11:51:35.282Z,47.20
2023-02-05T11:54:15.950Z,47.31
2023-02-05T11:57:05.218Z,47.94
2023-02-05T11:59:34.249Z,47.68
2023-02-05T12:02:31.244Z,47.05
2023-02-05T12:05:20.134Z,47.22
2023-02-05T12:07:54.240Z,46.37
2023-02-05T12:10:33.299Z,46.52
2023-02-05T12:13:30.651Z,47.66
2023-02-05T12:16:13.617Z,48.40
2023-02-05T12:18:50.223Z,47.97
2023-02-05T12:21:22.901Z,47.85
2023-02-05T12:24:32.043Z,47.42
2023-02-05T12:27:17.004Z,48.30
2023-02-05T12:30:13.036Z,47.36
2023-02-05T12:33:01.209Z,46.53
2023-02-05T12:35:47.880Z,47.15
2023-02-05T12:38:46.948Z,47.60
2023-02-05T12:41:22.241Z,47.14
2023-02-05T12:43:54.370Z,47.78
2023-02-05T12:46:33.721Z,48.75
2023-02-05T12:49:29.647Z,49.67
2023-02-05T12:52:16.048Z,49.90
2023-02-05T12:54:59.996Z,50.12
2023-02-05T12:57:38.388Z,50.77
2023-02-05T13:00:19.788Z,51.45
2023-02-05T13:03:08.658Z,51.68
2023-02-05T13:05:55.404Z,52.38
2023-02-05T13:08:42.888Z,52.96
2023-02-05T13:11:18.232Z,52.30
2023-02-05T13:13:58.799Z,53.28
2023-02-05T13:16:50.336Z,54.18
2023-02-05T13:19:29.654Z,54.35
2023-02-05T13:22:19.751Z,54.20
2023-02-05T13:25:12.911Z,53.04
2023-02-05T13:28:17.683Z,53.69
2023-02-05T13:30:51.732Z,54.33
2023-02-05T13:33:20.129Z,54.75
2023-02-05T13:36:13.434Z,55.24
2023-02-05T13:38:53.135Z,55.81
2023-02-05T13:41:53.538Z,56.66
2023-02-05T13:44:31.063Z,56.35
2023-02-05T13:47:20.939Z,56.52
2023-02-05T13:50:23.728Z,56.95
2023-02-05T13:53:06.357Z,57.76
2023-02-05T13:56:19.164Z,57.80
2023-02-05T13:59:01.893Z,57.86
2023-02-05T14:01:41.230Z,56.77
2023-02-05T14:04:25.562Z,57.04
2023-02-05T14:07:04.326Z,57.64
2023-02-05T14:09:37.682Z,58.37
2023-02-05T14:12:09.884Z,59.27
2023-02-05T14:14:42.850Z,60.01
2023-02-05T14:17:31.197Z,60.97
2023-02-05T14:20:01.303Z,61.98
2023-02-05T14:22:39.952Z,62.72
2023-02-05T14:25:37.072Z,62.78
2023-02-05T14:28:20.726Z,63.27
2023-02-05T14:30:57.269Z,63.46
2023-02-05T14:33:44.730Z,64.40
2023-02-05T14:36:24.985Z,65.56
2023-02-05T14:39:01.926Z,65.86
2023-02-05T14:41:39.043Z,66.31
2023-02-05T14:44:19.401Z,67.01
2023-02-05T14:47:27.511Z,67.98
2023-02-05T14:50:17.805Z,67.87
2023-02-05T14:52:52.397Z,69.00
2023-02-05T14:55:36.855Z,68.75
2023-02-05T14:58:10.786Z,69.06
2023-02-05T15:00:45.316Z,69.27
2023-02-05T15:03:16.886Z,69.88
2023-02-05T15:05:45.025Z,69.23
2023-02-05T15:08:34.513Z,69.47
2023-02-05T15:11:23.779Z,69.53
2023-02-05T15:14:20.563Z,69.91
2023-02-05T15:17:11.475Z,70.38
2023-02-05T15:19:45.653Z,70.66
2023-02-05T15:22:25.253Z,71.47
2023-02-05T15:24:54.797Z,71.34
2023-02-05T15:27:42.391Z,71.15
2023-02-05T15:30:18.402Z,70.95
2023-02-05T15:33:00.797Z,71.60
2023-02-05T15:35:31.142Z,72.01
2023-02-05T15:38:04.053Z,71.72
2023-02-05T15:40:34.595Z,72.19
2023-02-05T15:43:22.860Z,72.64
2023-02-05T15:46:12.886Z,73.59
2023-02-05T15:48:41.252Z,72.68
2023-02-05T15:51:22.847Z,72.83
2023-02-05T15:53:51.944Z,72.99
2023-02-05T15:56:19.930Z,72.91
2023-02-05T15:58:52.926Z,72.67
2023-02-05T16:01:35.251Z,73.62
2023-02-05T16:04:28.049Z,73.41
2023-02-05T16:06:56.837Z,73.76
2023-02-05T16:09:27.884Z,73.79
2023-02-05T16:11:56.879Z,73.84
2023-02-05T16:14:28.773Z,73.89
2023-02-05T16:17:12.284Z,73.75
2023-02-05T16:19:50.169Z,74.20
2023-02-05T16:22:44.365Z,74.70
2023-02-05T16:25:31.063Z,74.77
2023-02-05T16:28:02.814Z,75.18
2023-02-05T16:30:43.870Z,75.04
2023-02-05T16:33:15.145Z,75.77
2023-02-05T16:35:48.570Z,75.82
2023-02-05T16:38:20.279Z,75.24
2023-02-05T16:40:52.114Z,75.24
2023-02-05T16:43:27.359Z,75.86
2023-02-05T16:46:07.023Z,76.28
2023-02-05T16:48:41.883Z,76.07
2023-02-05T16:51:35.623Z,77.01
2023-02-05T16:54:31.261Z,76.59
2023-02-05T16:57:14.138Z,77.47
2023-02-05T16:59:53.830Z,78.86
2023-02-05T17:02:29.365Z,78.70
2023-02-05T17:04:59.906Z,79.35
2023-02-05T17:07:29.187Z,79.13
2023-02-05T17:10:17.785Z,79.11
2023-02-05T17:12:49.429Z,79.29
2023-02-05T17:15:17.946Z,79.50
2023-02-05T17:17:55.097Z,79.38
2023-02-05T17:20:26.361Z,79.46
2023-02-05T17:23:00.574Z,80.32
2023-02-05T17:25:34.188Z,81.66
2023-02-05T17:28:03.798Z,81.26
2023-02-05T17:30:32.737Z,80.67
2023-02-05T17:33:14.508Z,80.18
2023-02-05T17:35:43.024Z,80.73
2023-02-05T17:38:11.915Z,81.98
2023-02-05T17:40:40.626Z,81.51
2023-02-05T17:43:08.982Z,81.92
2023-02-05T17:45:39.936Z,81.95
2023-02-05T17:48:08.509Z,81.58
2023-02-05T17:50:38.124Z,82.08
2023-02-05T17:53:08.960Z,81.91
2023-02-05T17:55:39.374Z,81.67
2023-02-05T17:58:07.549Z,81.78
2023-02-05T18:00:36.279Z,82.20
2023-02-05T18:03:04.832Z,82.51
2023-02-05T18:05:33.301Z,83.63
2023-02-05T18:08:03.321Z,84.30
2023-02-05T18:10:32.413Z,84.75
2023-02-05T18:13:01.217Z,86.45
2023-02-05T18:15:32.450Z,87.23
2023-02-05T18:18:01.147Z,87.25
2023-02-05T18:20:29.351Z,87.86
2023-02-05T18:22:57.730Z,88.73
2023-02-05T18:25:26.887Z,88.52
2023-02-05T18:27:56.449Z,87.25
2023-02-05T18:30:25.108Z,86.91
2023-02-05T18:32:53.357Z,86.24
2023-02-05T18:35:21.837Z,86.55
2023-02-05T18:37:50.116Z,86.69
2023-02-05T18:40:18.906Z,86.81
2023-02-05T18:42:47.287Z,85.91
2023-02-05T18:45:15.570Z,86.30
2023-02-05T18:47:44.040Z,87.23
2023-02-05T18:50:12.628Z,87.02
2023-02-05T18:52:41.183Z,88.01
2023-02-05T18:55:12.569Z,88.22
2023-02-05T18:57:41.052Z,88.67
2023-02-05T19:00:10.462Z,88.28
2023-02-05T19:02:41.330Z,89.08
2023-02-05T19:05:11.677Z,90.02
2023-02-05T19:07:40.205Z,91.05
2023-02-05T19:10:08.900Z,90.10
2023-02-05T19:12:37.566Z,88.76
2023-02-05T19:15:07.279Z,88.88
2023-02-05T19:17:35.663Z,88.02
2023-02-05T19:20:06.081Z,88.03
2023-02-05T19:22:34.258Z,87.82
2023-02-05T19:25:02.833Z,87.83
2023-02-05T19:27:31.210Z,88.35
2023-02-05T19:29:59.588Z,88.67
2023-02-05T19:32:27.968Z,89.41
2023-02-05T19:34:56.960Z,89.71
2023-02-05T19:37:26.070Z,89.97
2023-02-05T19:39:54.128Z,90.64
2023-02-05T19:42:22.719Z,91.15
2023-02-05T19:44:51.299Z,91.56
2023-02-05T19:47:21.420Z,91.47
2023-02-05T19:49:49.914Z,91.72
2023-02-05T19:52:18.259Z,91.97
2023-02-05T19:54:46.475Z,91.68
2023-02-05T19:57:14.733Z,91.41
2023-02-05T19:59:43.318Z,91.41
2023-02-05T20:02:19.462Z,91.67
2023-02-05T20:04:48.125Z,92.58
2023-02-05T20:07:16.413Z,92.08
2023-02-05T20:09:44.687Z,91.60
2023-02-05T20:12:13.189Z,91.54
2023-02-05T20:14:41.675Z,93.32
2023-02-05T20:17:12.105Z,92.80
2023-02-05T20:19:40.383Z,92.42
2023-02-05T20:22:09.477Z,93.04
2023-02-05T20:24:37.816Z,93.36
2023-02-05T20:27:06.134Z,94.32
2023-02-05T20:29:53.211Z,94.82
2023-02-05T20:32:21.526Z,95.95
2023-02-05T20:34:50.431Z,96.27
2023-02-05T20:37:20.028Z,96.65
2023-02-05T20:39:48.409Z,96.92
2023-02-05T20:42:16.887Z,96.26
2023-02-05T20:44:45.469Z,96.57
2023-02-05T20:47:14.626Z,96.33
2023-02-05T20:49:42.998Z,96.45
2023-02-05T20:52:12.145Z,96.50
2023-02-05T20:54:41.037Z,96.86
2023-02-05T20:57:09.321Z,95.83
2023-02-05T20:59:38.790Z,95.64
2023-02-05T21:02:07.116Z,95.71
2023-02-05T21:04:37.049Z,95.48
2023-02-05T21:07:05.307Z,95.02
2023-02-05T21:09:33.666Z,94.72
2023-02-05T21:12:02.251Z,94.26
2023-02-05T21:14:30.955Z,94.44
2023-02-05T21:17:00.033Z,94.73
2023-02-05T21:19:28.313Z,95.69
2023-02-05T21:21:57.314Z,96.26
2023-02-05T21:24:25.476Z,96.33
2023-02-05T21:26:53.653Z,95.93
2023-02-05T21:29:22.336Z,95.98
2023-02-05T21:31:55.955Z,96.18
2023-02-05T21:34:27.026Z,97.22
2023-02-05T21:36:56.390Z,96.64
2023-02-05T21:39:25.772Z,96.91
2023-02-05T21:41:54.895Z,97.59
2023-02-05T21:44:24.312Z,97.58
2023-02-05T21:46:53.964Z,97.89
2023-02-05T21:49:22.378Z,98.33
2023-02-05T21:51:53.446Z,98.49
2023-02-05T21:54:25.553Z,98.34
2023-02-05T21:56:54.505Z,98.39
2023-02-05T21:59:23.676Z,98.35
2023-02-05T22:01:52.111Z,97.97
2023-02-05T22:04:21.051Z,97.53
2023-02-05T22:06:51.283Z,97.11
2023-02-05T22:09:19.457Z,96.85
2023-02-05T22:11:51.133Z,96.58
2023-02-05T22:14:19.356Z,95.97
2023-02-05T22:16:48.118Z,95.71
2023-02-05T22:19:16.654Z,95.26
2023-02-05T22:21:44.930Z,95.00
2023-02-05T22:24:18.593Z,94.75
2023-02-05T22:26:47.830Z,94.66
2023-02-05T22:29:19.186Z,94.66
2023-02-05T22:31:57.045Z,94.33
2023-02-05T22:34:25.564Z,93.89
2023-02-05T22:36:53.942Z,93.36
2023-02-05T22:39:22.730Z,92.71
2023-02-05T22:41:51.116Z,92.23
2023-02-05T22:44:19.491Z,91.83
2023-02-05T22:46:48.072Z,90.68
2023-02-05T22:49:16.245Z,89.72
2023-02-05T22:51:45.644Z,88.96
2023-02-05T22:54:15.083Z,88.83
2023-02-05T22:56:44.371Z,88.39
2023-02-05T22:59:13.149Z,87.76
2023-02-05T23:01:41.318Z,87.17
2023-02-05T23:04:10.104Z,87.21
2023-02-05T23:06:41.685Z,87.33
2023-02-05T23:09:14.642Z,85.93
2023-02-05T23:11:43.942Z,85.47
2023-02-05T23:14:14.374Z,85.21
2023-02-05T23:16:45.300Z,84.79
2023-02-05T23:19:16.973Z,84.70
2023-02-05T23:21:46.576Z,84.47
2023-02-05T23:24:15.316Z,84.48
2023-02-05T23:26:45.974Z,84.46
2023-02-05T23:29:16.646Z,84.10
2023-02-05T23:31:45.613Z,83.97
2023-02-05T23:34:14.238Z,84.15
2023-02-05T23:36:42.377Z,84.12
2023-02-05T23:39:10.887Z,83.70
2023-02-05T23:41:40.119Z,83.96
2023-02-05T23:44:12.268Z,82.64
2023-02-05T23:46:42.516Z,82.37
2023-02-05T23:49:11.655Z,82.27
2023-02-05T23:51:40.259Z,82.42
2023-02-05T23:54:10.664Z,82.61
2023-02-05T23:56:39.144Z,82.51
2023-02-05T23:59:09.001Z,82.23
